createdAt,value
2019-03-16T00:01:56.560Z,4.70
2019-03-16T00:04:19.057Z,4.40
2019-03-16T00:06:50.536Z,5.50
2019-03-16T00:09:22.073Z,5.00
2019-03-16T00:11:53.461Z,5.23
2019-03-16T00:14:44.328Z,4.40
2019-03-16T00:20:18.352Z,3.33
2019-03-16T00:22:49.891Z,3.43
2019-03-16T00:25:21.276Z,4.07
2019-03-16T00:27:52.813Z,4.53
2019-03-16T00:30:24.207Z,4.00
2019-03-16T00:32:55.522Z,6.70
2019-03-16T00:35:27.110Z,4.77
2019-03-16T00:37:58.482Z,5.07
2019-03-16T00:40:30.085Z,4.57
2019-03-16T00:43:01.704Z,4.40
2019-03-16T00:45:33.145Z,5.30
2019-03-16T00:48:04.601Z,6.40
2019-03-16T00:50:36.224Z,5.40
2019-03-16T00:53:07.756Z,4.80
2019-03-16T00:55:39.069Z,6.03
2019-03-16T00:58:10.751Z,5.23
2019-03-16T01:00:42.268Z,4.63
2019-03-16T01:03:13.669Z,5.93
2019-03-16T01:05:45.062Z,4.70
2019-03-16T01:08:16.270Z,4.60
2019-03-16T01:10:48.275Z,4.73
2019-03-16T01:13:19.748Z,4.67
2019-03-16T01:15:51.142Z,4.50
2019-03-16T01:18:22.656Z,4.30
2019-03-16T01:20:54.153Z,3.40
2019-03-16T01:23:25.604Z,4.30
2019-03-16T01:25:57.005Z,3.50
2019-03-16T01:28:28.579Z,3.47
2019-03-16T01:31:03.016Z,3.63
2019-03-16T01:33:34.374Z,2.90
2019-03-16T01:36:05.583Z,3.17
2019-03-16T01:38:39.277Z,3.40
2019-03-16T01:41:10.700Z,2.40
2019-03-16T01:43:47.438Z,2.70
2019-03-16T01:46:36.703Z,3.40
2019-03-16T01:49:09.240Z,3.70
2019-03-16T01:51:40.714Z,2.90
2019-03-16T01:54:12.172Z,2.43
2019-03-16T01:56:43.710Z,2.93
2019-03-16T01:59:15.152Z,3.03
2019-03-16T02:01:49.175Z,3.10
2019-03-16T02:04:19.954Z,2.90
2019-03-16T02:06:51.481Z,2.67
2019-03-16T02:09:22.981Z,3.10
2019-03-16T02:11:54.462Z,4.20
2019-03-16T02:14:25.835Z,2.43
2019-03-16T02:16:57.350Z,3.20
2019-03-16T02:19:28.938Z,2.20
2019-03-16T02:22:00.297Z,4.33
2019-03-16T02:24:32.063Z,2.90
2019-03-16T02:27:03.557Z,2.00
2019-03-16T02:29:35.160Z,2.40
2019-03-16T02:32:06.586Z,1.80
2019-03-16T02:34:38.090Z,2.00
2019-03-16T02:37:09.386Z,3.67
2019-03-16T02:39:40.773Z,3.23
2019-03-16T02:42:12.171Z,1.60
2019-03-16T02:44:43.557Z,1.60
2019-03-16T02:47:14.987Z,2.33
2019-03-16T02:49:46.364Z,2.70
2019-03-16T02:52:17.715Z,1.90
2019-03-16T02:54:49.135Z,2.37
2019-03-16T02:57:20.497Z,2.40
2019-03-16T02:59:52.039Z,2.63
2019-03-16T03:02:23.304Z,2.27
2019-03-16T03:04:55.783Z,1.93
2019-03-16T03:07:27.373Z,2.17
2019-03-16T03:09:58.558Z,1.83
2019-03-16T03:12:51.699Z,2.07
2019-03-16T03:15:45.068Z,2.77
2019-03-16T03:18:16.464Z,2.63
2019-03-16T03:20:47.700Z,2.47
2019-03-16T03:23:18.983Z,4.70
2019-03-16T03:25:50.113Z,2.30
2019-03-16T03:28:21.359Z,2.27
2019-03-16T03:30:52.574Z,2.27
2019-03-16T03:33:23.974Z,1.93
2019-03-16T03:35:55.220Z,2.07
2019-03-16T03:38:26.368Z,2.53
2019-03-16T03:41:01.331Z,2.50
2019-03-16T03:43:30.603Z,2.07
2019-03-16T03:46:01.792Z,1.80
2019-03-16T03:48:32.885Z,2.13
2019-03-16T03:51:04.140Z,2.53
2019-03-16T03:53:35.357Z,3.20
2019-03-16T03:56:06.624Z,2.87
2019-03-16T03:58:38.050Z,2.80
2019-03-16T04:01:09.282Z,2.43
2019-03-16T04:03:40.689Z,2.13
2019-03-16T04:06:12.000Z,2.77
2019-03-16T04:08:43.104Z,2.37
2019-03-16T04:11:14.257Z,2.30
2019-03-16T04:13:45.513Z,2.00
2019-03-16T04:16:16.745Z,3.90
2019-03-16T04:18:51.485Z,2.70
2019-03-16T04:21:20.833Z,2.70
2019-03-16T04:23:51.979Z,4.00
2019-03-16T04:26:23.221Z,3.27
2019-03-16T04:28:54.464Z,5.37
2019-03-16T04:31:25.677Z,3.60
2019-03-16T04:33:56.848Z,4.87
2019-03-16T04:36:28.099Z,4.60
2019-03-16T04:38:59.341Z,4.27
2019-03-16T04:41:30.461Z,3.80
2019-03-16T04:44:01.749Z,4.10
2019-03-16T04:46:32.932Z,4.37
2019-03-16T04:49:04.186Z,4.93
2019-03-16T04:51:35.496Z,5.63
2019-03-16T04:54:06.640Z,5.20
2019-03-16T04:56:39.480Z,6.63
2019-03-16T04:59:10.704Z,6.90
2019-03-16T05:01:41.967Z,7.17
2019-03-16T05:04:13.215Z,6.57
2019-03-16T05:06:44.457Z,7.73
2019-03-16T05:09:15.695Z,8.00
2019-03-16T05:11:46.984Z,7.87
2019-03-16T05:14:18.206Z,8.97
2019-03-16T05:16:49.334Z,7.63
2019-03-16T05:19:20.607Z,7.63
2019-03-16T05:21:51.833Z,6.87
2019-03-16T05:24:23.083Z,6.67
2019-03-16T05:26:54.267Z,8.00
2019-03-16T05:29:25.475Z,6.20
2019-03-16T05:31:56.690Z,8.10
2019-03-16T05:34:28.001Z,10.07
2019-03-16T05:36:59.221Z,9.37
2019-03-16T05:39:30.465Z,10.20
2019-03-16T05:42:05.002Z,10.40
2019-03-16T05:44:34.617Z,10.67
2019-03-16T05:47:05.805Z,10.63
2019-03-16T05:49:37.008Z,10.50
2019-03-16T05:52:07.582Z,9.80
2019-03-16T05:54:38.848Z,10.47
2019-03-16T05:57:10.136Z,11.43
2019-03-16T05:59:41.394Z,12.17
2019-03-16T06:02:12.654Z,12.83
2019-03-16T06:04:43.890Z,12.20
2019-03-16T06:07:15.131Z,11.50
2019-03-16T06:10:00.377Z,11.60
2019-03-16T06:12:31.726Z,11.20
2019-03-16T06:15:03.053Z,9.50
2019-03-16T06:17:34.339Z,11.00
2019-03-16T06:20:06.331Z,10.30
2019-03-16T06:22:37.622Z,9.90
2019-03-16T06:25:09.038Z,9.77
2019-03-16T06:27:40.302Z,10.23
2019-03-16T06:30:11.995Z,10.00
2019-03-16T06:32:43.309Z,10.13
2019-03-16T06:35:24.398Z,9.13
2019-03-16T06:37:47.510Z,9.47
2019-03-16T06:40:18.820Z,11.03
2019-03-16T06:42:50.121Z,11.70
2019-03-16T06:45:21.321Z,9.30
2019-03-16T06:47:54.790Z,10.50
2019-03-16T06:50:25.594Z,9.07
2019-03-16T06:52:56.897Z,8.70
2019-03-16T06:55:28.186Z,7.87
2019-03-16T06:57:59.484Z,8.07
2019-03-16T07:00:30.788Z,7.97
2019-03-16T07:03:02.076Z,8.53
2019-03-16T07:05:38.299Z,8.77
2019-03-16T07:08:06.192Z,7.87
2019-03-16T07:10:37.417Z,9.13
2019-03-16T07:13:08.622Z,9.27
2019-03-16T07:15:39.868Z,10.10
2019-03-16T07:18:11.134Z,9.57
2019-03-16T07:20:42.270Z,9.60
2019-03-16T07:23:13.654Z,12.00
2019-03-16T07:25:44.914Z,11.33
2019-03-16T07:28:16.185Z,9.87
2019-03-16T07:30:47.578Z,8.97
2019-03-16T07:33:18.914Z,8.57
2019-03-16T07:35:50.167Z,7.93
2019-03-16T07:38:21.555Z,7.43
2019-03-16T07:40:55.453Z,8.70
2019-03-16T07:43:45.622Z,6.23
2019-03-16T07:46:16.892Z,7.80
2019-03-16T07:48:48.178Z,8.90
2019-03-16T07:51:19.457Z,9.00
2019-03-16T07:53:50.658Z,9.20
2019-03-16T07:56:21.838Z,9.17
2019-03-16T07:58:53.055Z,8.63
2019-03-16T08:01:24.367Z,9.30
2019-03-16T08:03:55.570Z,8.27
2019-03-16T08:06:26.851Z,10.03
2019-03-16T08:08:58.117Z,10.10
2019-03-16T08:11:29.352Z,10.00
2019-03-16T08:14:00.683Z,8.90
2019-03-16T08:16:31.925Z,8.43
2019-03-16T08:19:03.058Z,6.40
2019-03-16T08:21:34.214Z,7.57
2019-03-16T08:24:05.526Z,7.10
2019-03-16T08:26:36.787Z,7.33
2019-03-16T08:29:08.029Z,6.93
2019-03-16T08:31:39.228Z,5.43
2019-03-16T08:34:10.547Z,4.67
2019-03-16T08:36:41.952Z,4.00
2019-03-16T08:39:13.293Z,3.10
2019-03-16T08:41:44.646Z,3.30
2019-03-16T08:44:15.917Z,2.90
2019-03-16T08:46:47.299Z,2.80
2019-03-16T08:49:18.643Z,2.07
2019-03-16T08:51:49.983Z,3.07
2019-03-16T08:54:21.348Z,2.60
2019-03-16T08:56:52.713Z,2.57
2019-03-16T08:59:24.539Z,3.37
2019-03-16T09:01:55.942Z,3.13
2019-03-16T09:04:27.210Z,3.20
2019-03-16T09:06:58.455Z,2.80
2019-03-16T09:09:33.072Z,3.03
2019-03-16T09:12:04.414Z,2.93
2019-03-16T09:14:35.677Z,2.83
2019-03-16T09:17:09.031Z,3.37
2019-03-16T09:19:39.781Z,2.53
2019-03-16T09:22:11.010Z,2.13
2019-03-16T09:24:42.290Z,3.27
2019-03-16T09:27:13.528Z,3.00
2019-03-16T09:29:44.768Z,3.67
2019-03-16T09:32:15.931Z,2.83
2019-03-16T09:34:47.130Z,2.60
2019-03-16T09:37:18.296Z,4.13
2019-03-16T09:39:49.529Z,3.27
2019-03-16T09:42:20.819Z,2.50
2019-03-16T09:44:51.974Z,2.63
2019-03-16T09:47:23.116Z,3.03
2019-03-16T09:49:54.364Z,2.40
2019-03-16T09:52:25.625Z,2.50
2019-03-16T09:54:56.817Z,2.27
2019-03-16T09:57:28.067Z,3.10
2019-03-16T09:59:59.351Z,2.10
2019-03-16T10:02:30.964Z,2.27
2019-03-16T10:05:02.123Z,2.03
2019-03-16T10:07:33.357Z,1.87
2019-03-16T10:10:05.181Z,2.30
2019-03-16T10:12:36.511Z,1.97
2019-03-16T10:15:08.353Z,1.60
2019-03-16T10:17:39.569Z,1.67
2019-03-16T10:20:11.169Z,1.53
2019-03-16T10:22:42.429Z,1.40
2019-03-16T10:25:13.674Z,1.23
2019-03-16T10:27:44.925Z,1.47
2019-03-16T10:30:16.446Z,1.10
2019-03-16T10:32:51.190Z,1.27
2019-03-16T10:35:34.599Z,1.00
2019-03-16T10:38:05.863Z,1.67
2019-03-16T10:40:37.274Z,1.57
2019-03-16T10:43:08.547Z,1.80
2019-03-16T10:45:40.521Z,1.77
2019-03-16T10:48:12.011Z,1.50
2019-03-16T10:50:46.633Z,2.10
2019-03-16T10:53:18.170Z,1.97
2019-03-16T10:55:49.573Z,1.53
2019-03-16T10:58:21.815Z,1.70
2019-03-16T11:00:53.143Z,2.10
2019-03-16T11:03:24.359Z,1.53
2019-03-16T11:05:55.623Z,1.87
2019-03-16T11:08:26.907Z,1.50
2019-03-16T11:10:58.260Z,1.70
2019-03-16T11:13:29.554Z,2.00
2019-03-16T11:16:00.861Z,2.33
2019-03-16T11:18:32.134Z,1.60
2019-03-16T11:21:03.368Z,1.90
2019-03-16T11:23:45.494Z,2.20
2019-03-16T11:26:23.660Z,1.70
2019-03-16T11:29:08.962Z,1.40
2019-03-16T11:31:38.845Z,1.73
2019-03-16T11:34:11.096Z,1.70
2019-03-16T11:36:46.407Z,1.93
2019-03-16T11:39:24.770Z,2.20
2019-03-16T11:42:04.852Z,1.77
2019-03-16T11:44:39.302Z,1.80
2019-03-16T11:47:10.640Z,1.50
2019-03-16T11:49:41.951Z,1.97
2019-03-16T11:52:13.205Z,2.30
2019-03-16T11:54:44.478Z,1.30
2019-03-16T11:57:15.869Z,1.67
2019-03-16T11:59:47.100Z,1.57
2019-03-16T12:02:18.364Z,1.40
2019-03-16T12:04:49.597Z,1.53
2019-03-16T12:07:41.289Z,1.47
2019-03-16T12:10:31.989Z,1.97
2019-03-16T12:13:03.371Z,1.67
2019-03-16T12:15:35.644Z,1.33
2019-03-16T12:18:06.991Z,1.50
2019-03-16T12:20:38.274Z,1.50
2019-03-16T12:23:09.797Z,1.70
2019-03-16T12:25:41.124Z,1.50
2019-03-16T12:28:13.841Z,1.30
2019-03-16T12:30:46.455Z,1.30
2019-03-16T12:33:17.982Z,1.60
2019-03-16T12:35:50.350Z,1.80
2019-03-16T12:38:21.712Z,1.40
2019-03-16T12:40:53.124Z,1.97
2019-03-16T12:43:24.379Z,1.90
2019-03-16T12:45:55.690Z,1.80
2019-03-16T12:48:30.021Z,1.80
2019-03-16T12:51:03.602Z,2.33
2019-03-16T12:53:42.357Z,2.07
2019-03-16T12:56:16.856Z,2.40
2019-03-16T12:58:48.141Z,1.83
2019-03-16T13:01:19.523Z,2.00
2019-03-16T13:03:50.851Z,1.60
2019-03-16T13:06:28.024Z,1.43
2019-03-16T13:08:59.397Z,1.40
2019-03-16T13:11:30.750Z,1.83
2019-03-16T13:14:02.053Z,1.93
2019-03-16T13:16:33.346Z,1.20
2019-03-16T13:19:04.625Z,1.67
2019-03-16T13:21:35.884Z,1.90
2019-03-16T13:24:07.260Z,1.90
2019-03-16T13:26:38.551Z,2.17
2019-03-16T13:29:11.321Z,1.80
2019-03-16T13:31:42.567Z,1.70
2019-03-16T13:34:13.865Z,1.80
2019-03-16T13:36:45.167Z,1.60
2019-03-16T13:39:35.422Z,1.80
2019-03-16T13:42:06.692Z,1.60
2019-03-16T13:44:40.551Z,1.77
2019-03-16T13:47:11.818Z,2.47
2019-03-16T13:49:43.022Z,2.00
2019-03-16T13:52:14.420Z,1.43
2019-03-16T13:54:45.774Z,1.80
2019-03-16T13:57:18.983Z,1.93
2019-03-16T13:59:50.247Z,1.87
2019-03-16T14:02:21.477Z,1.70
2019-03-16T14:04:52.889Z,1.40
2019-03-16T14:07:24.146Z,1.80
2019-03-16T14:09:55.451Z,2.00
2019-03-16T14:12:26.715Z,1.70
2019-03-16T14:14:58.247Z,1.80
2019-03-16T14:17:29.540Z,1.60
2019-03-16T14:20:00.717Z,1.70
2019-03-16T14:22:32.004Z,2.10
2019-03-16T14:25:03.142Z,1.87
2019-03-16T14:27:34.488Z,1.50
2019-03-16T14:30:06.324Z,1.50
2019-03-16T14:32:37.608Z,1.20
2019-03-16T14:35:09.357Z,1.50
2019-03-16T14:37:40.665Z,1.27
2019-03-16T14:40:12.726Z,1.30
2019-03-16T14:42:44.237Z,1.60
2019-03-16T14:45:16.093Z,2.00
2019-03-16T14:47:47.465Z,2.50
2019-03-16T14:50:19.474Z,2.83
2019-03-16T14:52:50.723Z,3.37
2019-03-16T14:55:22.052Z,4.37
2019-03-16T14:57:53.173Z,4.20
2019-03-16T15:00:37.606Z,4.97
2019-03-16T15:02:58.503Z,5.60
2019-03-16T15:05:31.781Z,4.43
2019-03-16T15:08:03.021Z,3.17
2019-03-16T15:10:53.248Z,2.40
2019-03-16T15:13:26.769Z,2.40
2019-03-16T15:15:57.331Z,2.40
2019-03-16T15:18:31.142Z,2.10
2019-03-16T15:21:02.359Z,1.80
2019-03-16T15:23:33.674Z,1.53
2019-03-16T15:26:04.841Z,1.80
2019-03-16T15:28:39.050Z,1.60
2019-03-16T15:31:10.332Z,1.60
2019-03-16T15:33:44.846Z,1.67
2019-03-16T15:36:16.092Z,1.67
2019-03-16T15:38:47.371Z,1.50
2019-03-16T15:41:18.671Z,1.87
2019-03-16T15:43:49.875Z,1.90
2019-03-16T15:46:21.057Z,1.57
2019-03-16T15:48:52.278Z,2.00
2019-03-16T15:51:24.171Z,2.17
2019-03-16T15:53:55.729Z,1.93
2019-03-16T15:56:27.812Z,1.90
2019-03-16T15:58:59.237Z,1.43
2019-03-16T16:01:30.362Z,1.77
2019-03-16T16:04:01.618Z,1.90
2019-03-16T16:06:32.795Z,1.80
2019-03-16T16:09:04.202Z,2.20
2019-03-16T16:11:35.401Z,2.33
2019-03-16T16:14:08.661Z,1.70
2019-03-16T16:16:39.949Z,1.50
2019-03-16T16:19:11.104Z,2.13
2019-03-16T16:21:42.405Z,1.70
2019-03-16T16:24:13.534Z,2.10
2019-03-16T16:26:44.852Z,3.43
2019-03-16T16:29:16.129Z,1.87
2019-03-16T16:31:47.429Z,2.40
2019-03-16T16:34:37.575Z,1.50
2019-03-16T16:37:10.408Z,1.37
2019-03-16T16:39:41.704Z,1.63
2019-03-16T16:42:13.005Z,2.23
2019-03-16T16:44:44.271Z,1.47
2019-03-16T16:47:15.490Z,1.87
2019-03-16T16:49:47.064Z,2.30
2019-03-16T16:52:18.347Z,1.90
2019-03-16T16:54:49.572Z,2.50
2019-03-16T16:57:20.787Z,2.00
2019-03-16T16:59:52.051Z,1.90
2019-03-16T17:02:23.269Z,1.90
2019-03-16T17:04:54.519Z,2.03
2019-03-16T17:07:25.725Z,2.30
2019-03-16T17:09:56.970Z,2.87
2019-03-16T17:12:28.221Z,1.80
2019-03-16T17:14:59.479Z,1.93
2019-03-16T17:17:35.349Z,2.47
2019-03-16T17:20:06.286Z,2.60
2019-03-16T17:22:37.666Z,2.13
2019-03-16T17:25:09.207Z,2.40
2019-03-16T17:27:40.477Z,2.70
2019-03-16T17:30:15.617Z,2.30
2019-03-16T17:32:46.922Z,2.27
2019-03-16T17:35:18.331Z,3.00
2019-03-16T17:37:49.578Z,2.10
2019-03-16T17:40:20.842Z,2.40
2019-03-16T17:42:52.090Z,2.10
2019-03-16T17:45:23.478Z,3.20
2019-03-16T17:47:54.739Z,2.83
2019-03-16T17:50:25.919Z,2.37
2019-03-16T17:52:57.211Z,2.10
2019-03-16T17:55:28.491Z,2.30
2019-03-16T17:57:59.911Z,1.83
2019-03-16T18:00:31.281Z,2.40
2019-03-16T18:03:02.530Z,2.50
2019-03-16T18:05:33.945Z,2.53
2019-03-16T18:08:05.169Z,1.90
2019-03-16T18:10:36.439Z,2.40
2019-03-16T18:13:07.759Z,2.30
2019-03-16T18:15:39.055Z,2.70
2019-03-16T18:18:12.704Z,2.47
2019-03-16T18:20:43.979Z,2.67
2019-03-16T18:26:19.682Z,2.80
2019-03-16T18:28:51.013Z,1.80
2019-03-16T18:31:22.280Z,2.77
2019-03-16T18:33:53.582Z,2.37
2019-03-16T18:36:24.785Z,2.43
2019-03-16T18:38:56.027Z,2.10
2019-03-16T18:41:27.359Z,2.60
2019-03-16T18:43:58.623Z,3.10
2019-03-16T18:46:29.854Z,2.17
2019-03-16T18:49:01.102Z,2.30
2019-03-16T18:51:32.390Z,2.00
2019-03-16T18:54:03.673Z,2.70
2019-03-16T18:56:35.023Z,2.60
2019-03-16T18:59:09.105Z,2.20
2019-03-16T19:01:39.215Z,2.83
2019-03-16T19:04:10.452Z,2.60
2019-03-16T19:06:41.769Z,2.90
2019-03-16T19:09:13.011Z,2.37
2019-03-16T19:11:44.315Z,3.17
2019-03-16T19:14:17.900Z,2.87
2019-03-16T19:16:49.185Z,3.43
2019-03-16T19:19:20.414Z,3.00
2019-03-16T19:21:51.661Z,3.00
2019-03-16T19:24:23.109Z,2.33
2019-03-16T19:26:54.380Z,3.00
2019-03-16T19:29:25.714Z,2.30
2019-03-16T19:31:57.103Z,3.30
2019-03-16T19:34:28.425Z,3.53
2019-03-16T19:36:59.865Z,3.20
2019-03-16T19:39:31.510Z,4.30
2019-03-16T19:42:02.652Z,2.90
2019-03-16T19:44:33.878Z,3.67
2019-03-16T19:47:05.186Z,2.97
2019-03-16T19:49:36.822Z,3.10
2019-03-16T19:52:08.194Z,3.07
2019-03-16T19:54:39.888Z,2.47
2019-03-16T19:57:16.226Z,3.60
2019-03-16T19:59:44.115Z,2.23
2019-03-16T20:02:15.435Z,3.63
2019-03-16T20:04:46.662Z,2.90
2019-03-16T20:07:19.467Z,2.93
2019-03-16T20:09:50.897Z,2.50
2019-03-16T20:12:22.231Z,3.63
2019-03-16T20:15:01.176Z,2.50
2019-03-16T20:17:32.342Z,3.40
2019-03-16T20:20:03.523Z,3.20
2019-03-16T20:22:34.963Z,3.10
2019-03-16T20:25:06.268Z,2.70
2019-03-16T20:27:37.666Z,3.23
2019-03-16T20:30:09.629Z,2.80
2019-03-16T20:32:40.914Z,2.10
2019-03-16T20:35:12.378Z,3.03
2019-03-16T20:37:43.604Z,2.77
2019-03-16T20:40:14.877Z,2.57
2019-03-16T20:42:46.277Z,3.03
2019-03-16T20:45:17.801Z,2.83
2019-03-16T20:47:50.282Z,2.47
2019-03-16T20:50:21.783Z,3.23
2019-03-16T20:52:52.942Z,2.90
2019-03-16T20:55:24.217Z,3.07
2019-03-16T20:57:55.439Z,3.27
2019-03-16T21:00:26.929Z,3.50
2019-03-16T21:02:58.068Z,3.27
2019-03-16T21:05:29.381Z,2.80
2019-03-16T21:08:00.674Z,4.57
2019-03-16T21:10:32.037Z,2.20
2019-03-16T21:13:03.377Z,3.17
2019-03-16T21:15:34.683Z,2.77
2019-03-16T21:18:06.124Z,3.27
2019-03-16T21:20:37.427Z,3.20
2019-03-16T21:23:08.945Z,3.10
2019-03-16T21:25:40.479Z,3.23
2019-03-16T21:28:12.205Z,2.90
2019-03-16T21:30:43.483Z,3.73
2019-03-16T21:33:14.825Z,4.43
2019-03-16T21:35:46.035Z,2.70
2019-03-16T21:38:19.821Z,2.90
2019-03-16T21:40:51.085Z,3.00
2019-03-16T21:43:22.437Z,3.00
2019-03-16T21:45:53.730Z,2.60
2019-03-16T21:48:24.991Z,3.20
2019-03-16T21:50:56.327Z,2.30
2019-03-16T21:53:27.698Z,3.10
2019-03-16T21:56:00.062Z,2.60
2019-03-16T21:58:31.349Z,3.53
2019-03-16T22:01:02.697Z,3.77
2019-03-16T22:03:42.149Z,2.50
2019-03-16T22:06:07.566Z,3.43
2019-03-16T22:08:38.982Z,2.57
2019-03-16T22:11:10.228Z,2.70
2019-03-16T22:13:41.509Z,3.60
2019-03-16T22:16:13.968Z,3.13
2019-03-16T22:18:45.235Z,2.90
2019-03-16T22:21:16.443Z,3.23
2019-03-16T22:23:47.914Z,2.70
2019-03-16T22:26:19.278Z,3.10
2019-03-16T22:28:53.382Z,2.77
2019-03-16T22:31:24.743Z,2.80
2019-03-16T22:33:55.891Z,3.07
2019-03-16T22:36:28.393Z,2.60
2019-03-16T22:38:59.687Z,3.10
2019-03-16T22:41:32.460Z,3.37
2019-03-16T22:44:04.064Z,2.73
2019-03-16T22:46:35.374Z,2.67
2019-03-16T22:49:08.229Z,2.37
2019-03-16T22:51:40.191Z,3.33
2019-03-16T22:54:12.708Z,2.97
2019-03-16T22:56:44.571Z,1.80
2019-03-16T22:59:15.857Z,2.27
2019-03-16T23:01:48.955Z,2.97
2019-03-16T23:04:22.236Z,2.80
2019-03-16T23:06:53.693Z,3.47
2019-03-16T23:09:25.082Z,2.90
2019-03-16T23:11:56.450Z,2.93
2019-03-16T23:14:28.117Z,3.00
2019-03-16T23:16:59.600Z,2.67
2019-03-16T23:19:30.778Z,2.63
2019-03-16T23:22:02.003Z,2.53
2019-03-16T23:24:33.350Z,2.63
2019-03-16T23:27:04.547Z,2.30
2019-03-16T23:29:38.674Z,2.83
2019-03-16T23:32:09.881Z,3.03
2019-03-16T23:34:41.164Z,2.50
2019-03-16T23:37:12.415Z,2.40
2019-03-16T23:39:43.675Z,2.63
2019-03-16T23:42:14.987Z,2.67
2019-03-16T23:44:48.997Z,2.83
2019-03-16T23:47:20.380Z,2.80
2019-03-16T23:49:51.702Z,2.70
2019-03-16T23:52:25.826Z,2.40
2019-03-16T23:55:16.245Z,2.00
2019-03-16T23:57:47.508Z,2.60
